Augusta Township, Michigan
Current Conditions -  °F | °C
As of 10:53 AM on Sunday 23 Nov 2014 (Local Time) from KARB Reporting Station
Broken Clouds Broken Clouds  
Wind Chill: 45°   Ceiling: 7000
Heat Index: 47°   Visibility: 8mi
Dew Point: 43°   Wind: 5mph
Humidity: 86%   Direction: 180°S
Pressure: 29.91"   Gusts: NA
Location:  42.0828°N, 83.683°W
Report Text: KARB 231553Z 18004KT 8SM BKN070 08/06 A2991 RMK AO2 RAE12 SLP130 P0001 T00830061
Loading
Personal Weather Stations






























Interactive Weather Map New forecast layout! Learn more

10-Day Weather Forecast

Advertisements
Track Severe Weather on mobile